« Back
NWS Peachtree City, Ga » Text Product » ATL Terminal Aerodrome Forecast


Printer-friendly Version
Current Version              Previous Versions:   1  2  3  4  5  6  7  8  9  

Terminal Aerodrome Forecast

319
FTUS42 KFFC 230700 AAA
TAFATL
TAF AMD
KATL 230745Z 2308/2412 05010KT P6SM FEW050
     FM231200 06010G20KT P6SM SCT020 SCT040
     FM231600 07012G20KT P6SM FEW040
     FM240100 07012G18KT P6SM SKC=



USA.gov is the U.S. government's official web portal to all federal, state and local government web resources and services.